Time,TemperatureF,DewpointF,PressureIn,WindDirection,WindDirectionDegrees,WindSpeedMPH,WindSpeedGustMPH,Humidity,HourlyPrecipIn,Conditions,Clouds,dailyrainin,SoftwareType,DateUTC
2015-05-05 00:05:00,74.3,67.7,30.15,SW,225,10.9,-999.0,80,-99.99,,,0.00,Acu-Link.com,2015-05-05 04:05:00,
2015-05-05 00:20:00,74.5,68.3,30.15,WSW,247,4.7,-999.0,81,-99.99,,,0.00,Acu-Link.com,2015-05-05 04:20:00,
2015-05-05 00:35:00,74.7,68.5,30.14,West,270,11.4,-999.0,81,-99.99,,,0.00,Acu-Link.com,2015-05-05 04:35:00,
2015-05-05 00:50:00,74.7,68.5,30.14,WSW,247,10.9,-999.0,81,-99.99,,,0.00,Acu-Link.com,2015-05-05 04:50:00,
2015-05-05 01:05:00,74.7,68.5,30.13,ENE,67,7.8,-999.0,81,-99.99,,,0.00,Acu-Link.com,2015-05-05 05:05:00,
2015-05-05 01:21:00,74.7,69.2,30.12,West,270,13.0,-999.0,83,-99.99,,,0.00,Acu-Link.com,2015-05-05 05:21:00,
2015-05-05 01:36:00,74.5,69.0,30.11,WSW,247,11.4,-999.0,83,-99.99,,,0.00,Acu-Link.com,2015-05-05 05:36:00,
2015-05-05 01:51:00,74.5,68.6,30.12,WSW,247,8.3,-999.0,82,-99.99,,,0.00,Acu-Link.com,2015-05-05 05:51:00,
2015-05-05 02:06:00,74.5,68.6,30.10,WSW,247,7.3,-999.0,82,-99.99,,,0.00,Acu-Link.com,2015-05-05 06:06:00,
2015-05-05 02:21:00,74.5,68.6,30.10,WSW,247,5.3,-999.0,82,-99.99,,,0.00,Acu-Link.com,2015-05-05 06:21:00,
2015-05-05 02:36:00,74.5,67.9,30.10,West,270,8.3,-999.0,80,-99.99,,,0.00,Acu-Link.com,2015-05-05 06:36:00,
2015-05-05 02:51:00,74.7,68.1,30.09,WSW,247,11.9,-999.0,80,-99.99,,,0.00,Acu-Link.com,2015-05-05 06:51:00,
2015-05-05 03:07:00,74.7,68.5,30.09,WSW,247,19.7,-999.0,81,-99.99,,,0.00,Acu-Link.com,2015-05-05 07:07:00,
2015-05-05 03:22:00,74.7,68.1,30.09,West,270,9.9,-999.0,80,-99.99,,,0.00,Acu-Link.com,2015-05-05 07:22:00,
2015-05-05 03:37:00,74.7,69.2,30.09,WSW,247,16.1,-999.0,83,-99.99,,,0.00,Acu-Link.com,2015-05-05 07:37:00,
2015-05-05 03:52:00,74.7,69.2,30.08,West,270,5.8,-999.0,83,-99.99,,,0.00,Acu-Link.com,2015-05-05 07:52:00,
2015-05-05 04:07:00,74.7,69.2,30.08,West,270,8.9,-999.0,83,-99.99,,,0.00,Acu-Link.com,2015-05-05 08:07:00,
2015-05-05 04:22:00,74.7,68.8,30.08,WNW,292,13.5,-999.0,82,-99.99,,,0.00,Acu-Link.com,2015-05-05 08:22:00,
2015-05-05 04:38:00,74.8,68.2,30.07,West,270,11.4,-999.0,80,-99.99,,,0.00,Acu-Link.com,2015-05-05 08:38:00,
2015-05-05 04:53:00,75.0,68.4,30.07,WSW,247,8.9,-999.0,80,-99.99,,,0.00,Acu-Link.com,2015-05-05 08:53:00,
2015-05-05 05:08:00,75.0,69.1,30.06,West,270,13.5,-999.0,82,-99.99,,,0.00,Acu-Link.com,2015-05-05 09:08:00,
2015-05-05 05:23:00,75.2,69.3,30.07,West,270,6.3,-999.0,82,-99.99,,,0.00,Acu-Link.com,2015-05-05 09:23:00,
2015-05-05 05:38:00,75.2,69.0,30.07,West,270,10.4,-999.0,81,-99.99,,,0.00,Acu-Link.com,2015-05-05 09:38:00,
2015-05-05 05:53:00,75.2,69.0,30.08,West,270,10.9,-999.0,81,-99.99,,,0.00,Acu-Link.com,2015-05-05 09:53:00,
2015-05-05 06:09:00,74.8,69.3,30.08,WSW,247,13.0,-999.0,83,-99.99,,,0.00,Acu-Link.com,2015-05-05 10:09:00,
2015-05-05 06:24:00,73.8,69.7,30.08,WSW,247,16.1,-999.0,87,-99.99,,,0.00,Acu-Link.com,2015-05-05 10:24:00,
2015-05-05 06:54:00,72.1,69.3,30.09,SW,225,15.0,-999.0,91,-99.99,,,0.01,Acu-Link.com,2015-05-05 10:54:00,
2015-05-05 07:09:00,71.8,70.0,30.09,SW,225,5.3,-999.0,94,-99.99,,,0.02,Acu-Link.com,2015-05-05 11:09:00,
2015-05-05 07:24:00,71.6,70.7,30.10,WNW,292,7.3,-999.0,97,-99.99,,,0.04,Acu-Link.com,2015-05-05 11:24:00,
2015-05-05 07:39:00,71.6,71.0,30.10,West,270,4.2,-999.0,98,-99.99,,,0.07,Acu-Link.com,2015-05-05 11:39:00,
2015-05-05 07:57:00,71.4,70.8,30.10,West,270,9.4,-999.0,98,-99.99,,,0.08,Acu-Link.com,2015-05-05 11:57:00,
2015-05-05 08:12:00,71.6,70.4,30.10,SW,225,4.2,-999.0,96,-99.99,,,0.08,Acu-Link.com,2015-05-05 12:12:00,
2015-05-05 08:27:00,72.1,70.3,30.10,SW,225,4.7,-999.0,94,-99.99,,,0.08,Acu-Link.com,2015-05-05 12:27:00,
2015-05-05 08:43:00,72.5,70.4,30.08,WSW,247,11.9,-999.0,93,-99.99,,,0.08,Acu-Link.com,2015-05-05 12:43:00,
2015-05-05 08:58:00,72.7,68.9,30.09,WSW,247,14.5,-999.0,88,-99.99,,,0.08,Acu-Link.com,2015-05-05 12:58:00,
2015-05-05 09:13:00,73.0,70.5,30.10,West,270,20.2,-999.0,92,-99.99,,,0.08,Acu-Link.com,2015-05-05 13:13:00,
2015-05-05 09:29:00,73.4,70.0,30.10,West,270,14.0,-999.0,89,-99.99,,,0.08,Acu-Link.com,2015-05-05 13:29:00,
2015-05-05 09:44:00,74.1,69.6,30.10,WSW,247,11.9,-999.0,86,-99.99,,,0.09,Acu-Link.com,2015-05-05 13:44:00,
2015-05-05 10:01:00,74.7,70.6,30.10,WNW,292,4.2,-999.0,87,-99.99,,,0.09,Acu-Link.com,2015-05-05 14:01:00,
2015-05-05 10:17:00,74.7,69.9,30.11,SW,225,4.2,-999.0,85,-99.99,,,0.09,Acu-Link.com,2015-05-05 14:17:00,
2015-05-05 10:33:00,74.7,69.5,30.10,West,270,10.4,-999.0,84,-99.99,,,0.09,Acu-Link.com,2015-05-05 14:33:00,
2015-05-05 10:48:00,74.8,68.6,30.10,WSW,247,6.3,-999.0,81,-99.99,,,0.09,Acu-Link.com,2015-05-05 14:48:00,
2015-05-05 11:03:00,75.6,70.1,30.10,South,180,3.2,-999.0,83,-99.99,,,0.09,Acu-Link.com,2015-05-05 15:03:00,
2015-05-05 11:19:00,76.6,70.7,30.10,SW,225,3.7,-999.0,82,-99.99,,,0.09,Acu-Link.com,2015-05-05 15:19:00,
2015-05-05 11:34:00,77.0,70.3,30.10,West,270,1.7,-999.0,80,-99.99,,,0.09,Acu-Link.com,2015-05-05 15:34:00,
2015-05-05 11:49:00,77.2,69.8,30.09,SW,225,0.0,-999.0,78,-99.99,,,0.09,Acu-Link.com,2015-05-05 15:49:00,
2015-05-05 12:08:00,78.1,69.9,30.09,SW,225,5.8,-999.0,76,-99.99,,,0.09,Acu-Link.com,2015-05-05 16:08:00,
2015-05-05 12:23:00,77.0,70.0,30.11,West,270,7.3,-999.0,79,-99.99,,,0.09,Acu-Link.com,2015-05-05 16:23:00,
2015-05-05 12:49:00,77.2,69.0,30.11,SW,225,8.3,-999.0,76,-99.99,,,0.09,Acu-Link.com,2015-05-05 16:49:00,
2015-05-05 13:04:00,77.4,68.4,30.10,West,270,6.3,-999.0,74,-99.99,,,0.09,Acu-Link.com,2015-05-05 17:04:00,
2015-05-05 13:19:00,77.9,68.9,30.09,SSW,202,9.4,-999.0,74,-99.99,,,0.09,Acu-Link.com,2015-05-05 17:19:00,
2015-05-05 13:34:00,77.5,68.5,30.08,WSW,247,7.8,-999.0,74,-99.99,,,0.09,Acu-Link.com,2015-05-05 17:34:00,
2015-05-05 13:49:00,77.7,67.5,30.08,SSW,202,3.2,-999.0,71,-99.99,,,0.09,Acu-Link.com,2015-05-05 17:49:00,
2015-05-05 14:05:00,78.3,69.3,30.07,SSW,202,5.3,-999.0,74,-99.99,,,0.09,Acu-Link.com,2015-05-05 18:05:00,
2015-05-05 14:20:00,78.8,70.2,30.06,South,180,11.4,-999.0,75,-99.99,,,0.09,Acu-Link.com,2015-05-05 18:20:00,
2015-05-05 14:35:00,77.9,69.7,30.06,SW,225,9.4,-999.0,76,-99.99,,,0.09,Acu-Link.com,2015-05-05 18:35:00,
2015-05-05 14:50:00,78.6,69.6,30.05,SW,225,7.3,-999.0,74,-99.99,,,0.09,Acu-Link.com,2015-05-05 18:50:00,
2015-05-05 15:06:00,78.6,70.8,30.03,WSW,247,3.2,-999.0,77,-99.99,,,0.09,Acu-Link.com,2015-05-05 19:06:00,
2015-05-05 15:21:00,78.6,70.8,30.03,West,270,7.3,-999.0,77,-99.99,,,0.09,Acu-Link.com,2015-05-05 19:21:00,
2015-05-05 15:36:00,78.6,70.4,30.01,SW,225,2.2,-999.0,76,-99.99,,,0.09,Acu-Link.com,2015-05-05 19:36:00,
2015-05-05 15:51:00,79.2,71.0,30.01,WSW,247,8.3,-999.0,76,-99.99,,,0.09,Acu-Link.com,2015-05-05 19:51:00,
2015-05-05 16:07:00,78.4,69.8,30.02,West,270,6.8,-999.0,75,-99.99,,,0.09,Acu-Link.com,2015-05-05 20:07:00,
2015-05-05 16:22:00,77.9,69.7,30.01,WSW,247,10.4,-999.0,76,-99.99,,,0.09,Acu-Link.com,2015-05-05 20:22:00,
2015-05-05 16:39:00,77.9,70.1,30.01,West,270,7.3,-999.0,77,-99.99,,,0.09,Acu-Link.com,2015-05-05 20:39:00,
2015-05-05 16:54:00,78.1,70.7,30.02,SW,225,4.7,-999.0,78,-99.99,,,0.09,Acu-Link.com,2015-05-05 20:54:00,
2015-05-05 17:09:00,77.5,71.2,30.00,SSW,202,4.7,-999.0,81,-99.99,,,0.09,Acu-Link.com,2015-05-05 21:09:00,
2015-05-05 17:48:00,77.5,70.8,30.00,East,90,1.7,-999.0,80,-99.99,,,0.09,Acu-Link.com,2015-05-05 21:48:00,